createdAt,value
2023-04-26T14:38:28.341Z,1.92
2023-04-26T14:40:55.276Z,2.00
2023-04-26T14:43:22.216Z,1.60
2023-04-26T14:45:49.130Z,1.70
2023-04-26T14:48:16.334Z,1.67
2023-04-26T14:50:43.495Z,1.40
2023-04-26T14:53:10.656Z,1.75
2023-04-26T14:55:37.877Z,1.50
2023-04-26T14:58:04.985Z,1.92
2023-04-26T15:00:31.888Z,1.55
2023-04-26T15:02:59.048Z,2.15
2023-04-26T15:05:26.098Z,3.08
2023-04-26T15:07:53.110Z,1.85
2023-04-26T15:10:20.083Z,1.90
2023-04-26T15:12:47.047Z,1.70
2023-04-26T15:15:14.475Z,1.40
2023-04-26T15:17:41.460Z,1.52
2023-04-26T15:20:09.800Z,1.40
2023-04-26T15:22:38.666Z,1.63
2023-04-26T15:34:58.870Z,1.90
2023-04-26T15:37:25.910Z,1.73
2023-04-26T15:39:52.772Z,1.75
2023-04-26T15:42:19.784Z,2.10
2023-04-26T15:44:46.872Z,2.30
2023-04-26T15:47:13.709Z,2.40
2023-04-26T15:49:40.685Z,1.70
2023-04-26T15:52:07.629Z,1.63
2023-04-26T15:54:34.622Z,1.83
2023-04-26T15:57:01.808Z,1.85
2023-04-26T15:59:30.861Z,1.85
2023-04-26T16:01:57.835Z,2.28
2023-04-26T16:04:25.056Z,2.10
2023-04-26T16:06:52.421Z,2.05
2023-04-26T16:09:24.914Z,1.98
2023-04-26T16:11:52.811Z,2.20
2023-04-26T16:14:19.738Z,2.05
2023-04-26T16:16:47.322Z,9.85
2023-04-26T16:19:14.381Z,3.58
2023-04-26T16:21:41.448Z,3.67
2023-04-26T16:24:09.461Z,1.65
2023-04-26T16:33:59.794Z,4.30
2023-04-26T16:36:27.688Z,1.60
2023-04-26T16:38:55.404Z,1.63
2023-04-26T16:41:23.418Z,2.95
2023-04-26T16:43:52.932Z,1.50
2023-04-26T16:46:20.351Z,1.42
2023-04-26T16:48:47.395Z,3.58
2023-04-26T16:51:14.416Z,3.95
2023-04-26T16:53:41.334Z,2.90
2023-04-26T16:56:08.635Z,1.92
2023-04-26T16:58:35.581Z,3.15
2023-04-26T17:01:02.716Z,2.38
2023-04-26T17:03:29.785Z,2.22
2023-04-26T17:05:57.020Z,2.00
2023-04-26T17:08:24.011Z,1.88
2023-04-26T17:10:51.992Z,2.15
2023-04-26T17:13:19.558Z,2.88
2023-04-26T17:15:46.758Z,4.18
2023-04-26T17:18:13.701Z,4.90
2023-04-26T17:20:41.333Z,4.00
2023-04-26T17:23:08.848Z,4.97
2023-04-26T17:25:36.201Z,5.80
2023-04-26T17:28:03.845Z,8.80
2023-04-26T17:30:30.854Z,9.30
2023-04-26T17:32:57.896Z,6.32
2023-04-26T17:35:24.963Z,3.10
2023-04-26T20:49:38.269Z,6.20
2023-04-26T20:52:05.594Z,6.47
2023-04-26T20:54:32.619Z,6.10
2023-04-26T20:56:59.596Z,5.50
2023-04-26T20:59:26.990Z,6.07
2023-04-26T21:01:54.140Z,6.32
2023-04-26T21:04:21.861Z,6.35
2023-04-26T21:06:49.037Z,6.53
2023-04-26T21:09:16.623Z,6.13
2023-04-26T21:11:43.927Z,6.93
2023-04-26T21:14:11.155Z,7.68
2023-04-26T21:16:38.037Z,10.38
2023-04-26T21:19:05.742Z,11.07
2023-04-26T21:21:32.853Z,10.93
2023-04-26T21:24:00.049Z,11.30
2023-04-26T21:26:27.145Z,11.90
2023-04-26T21:28:54.725Z,10.85
2023-04-26T21:31:21.682Z,9.50
2023-04-26T21:33:49.857Z,10.13
2023-04-26T21:36:16.795Z,10.88
2023-04-26T21:38:43.737Z,10.85
2023-04-26T21:41:10.894Z,11.18
2023-04-26T21:43:37.808Z,10.00
2023-04-26T21:46:04.963Z,10.63
2023-04-26T21:48:31.882Z,10.70
2023-04-26T21:50:58.762Z,9.77
2023-04-26T21:53:26.102Z,8.18
2023-04-26T21:55:54.167Z,7.32
2023-04-26T21:58:21.881Z,8.60
2023-04-26T22:00:49.670Z,7.28
2023-04-26T22:03:17.389Z,8.25
2023-04-26T22:05:44.587Z,9.07
2023-04-26T22:08:11.576Z,8.38
2023-04-26T22:10:38.614Z,7.45
2023-04-26T22:13:05.615Z,9.43
2023-04-26T22:15:32.621Z,6.85
2023-04-26T22:17:59.589Z,5.88
2023-04-26T22:20:27.011Z,6.22
2023-04-26T22:22:54.134Z,5.95
2023-04-26T22:25:24.656Z,7.13
2023-04-26T22:27:51.993Z,7.20
2023-04-26T22:30:24.880Z,7.50
2023-04-26T22:32:55.004Z,8.85
2023-04-26T22:35:22.984Z,8.52
2023-04-26T22:37:50.464Z,8.25
2023-04-26T22:40:17.803Z,9.02
2023-04-26T22:42:45.264Z,9.27
2023-04-26T22:45:13.261Z,9.00
2023-04-26T22:47:41.272Z,8.63
2023-04-26T22:50:09.071Z,8.18
2023-04-26T22:52:36.664Z,6.75
2023-04-26T22:55:03.721Z,6.72
2023-04-26T22:57:31.385Z,6.88
2023-04-26T22:59:58.454Z,6.22
2023-04-26T23:02:25.823Z,7.15
2023-04-26T23:04:52.855Z,7.07
2023-04-26T23:07:19.830Z,7.35
2023-04-26T23:09:47.814Z,6.65
2023-04-26T23:12:20.296Z,7.60
2023-04-26T23:14:48.865Z,6.93
2023-04-26T23:17:16.045Z,6.45
2023-04-26T23:19:42.944Z,6.60
2023-04-26T23:22:09.957Z,7.07
2023-04-26T23:24:37.054Z,6.85
2023-04-26T23:27:04.051Z,6.75
2023-04-26T23:29:31.168Z,7.18
2023-04-26T23:31:58.348Z,6.68
2023-04-26T23:34:25.488Z,7.10
2023-04-26T23:36:53.464Z,7.35
2023-04-26T23:39:20.700Z,6.28
2023-04-26T23:41:47.814Z,5.25
